NA49 weather

Public forecast

Using degrees Fahrenheit for public forecast. Weather courtesy of forecast.io.

Closest aviation weather report (METAR) to Paul Airstrip

Closest report is Rugby Municipal Airport, 2.1 nm (3.8 km) SE. Retrieved 2020/08/12 23:35 UTC (2 minutes ago):

KRUG 122335Z AUTO 12014G23KT 10SM CLR 28/17 A2980 RMK AO2

Closest aviation forecast (TAF) to Paul Airstrip

Closest forecast is Devils Lake Regional Airport, 49.3 nm (91.3 km) ESE. Retrieved 2020/08/12 18:24 UTC (5 hours ago):

TAF KDVL 121721Z 1218/1318 12013KT P6SM SKC FM130700 10012KT P6SM BKN050 FM131300 16012KT P6SM BKN045